createdAt,value
2019-04-25T00:02:21.324Z,16.53
2019-04-25T00:04:51.568Z,16.80
2019-04-25T00:07:22.849Z,16.30
2019-04-25T00:09:54.812Z,16.67
2019-04-25T00:12:25.462Z,16.60
2019-04-25T00:14:57.085Z,16.97
2019-04-25T00:17:27.220Z,16.50
2019-04-25T00:19:57.352Z,16.37
2019-04-25T00:22:45.616Z,16.07
2019-04-25T00:25:18.075Z,16.70
2019-04-25T00:27:48.584Z,16.30
2019-04-25T00:30:22.561Z,16.10
2019-04-25T00:32:53.646Z,16.30
2019-04-25T00:35:23.791Z,15.77
2019-04-25T00:37:53.799Z,16.20
2019-04-25T00:40:23.941Z,15.70
2019-04-25T00:42:54.052Z,15.97
2019-04-25T00:45:24.053Z,15.60
2019-04-25T00:47:54.072Z,15.53
2019-04-25T00:50:24.231Z,16.43
2019-04-25T00:52:54.246Z,15.93
2019-04-25T00:55:28.376Z,15.37
2019-04-25T00:57:57.657Z,15.70
2019-04-25T01:00:32.746Z,15.60
2019-04-25T01:03:04.435Z,16.23
2019-04-25T01:05:34.468Z,16.03
2019-04-25T01:08:04.674Z,15.23
2019-04-25T01:10:34.691Z,15.27
2019-04-25T01:13:05.015Z,14.97
2019-04-25T01:15:35.022Z,15.63
2019-04-25T01:18:05.623Z,15.43
2019-04-25T01:20:35.648Z,15.73
2019-04-25T01:23:05.689Z,15.60
2019-04-25T01:25:40.966Z,15.50
2019-04-25T01:28:07.668Z,15.90
2019-04-25T01:30:39.081Z,15.57
2019-04-25T01:33:10.246Z,15.87
2019-04-25T01:35:54.811Z,16.23
2019-04-25T01:38:27.167Z,16.60
2019-04-25T01:41:04.575Z,15.53
2019-04-25T01:43:36.309Z,15.60
2019-04-25T01:46:06.721Z,16.23
2019-04-25T01:48:36.704Z,15.70
2019-04-25T01:51:06.925Z,15.53
2019-04-25T01:53:36.936Z,16.53
2019-04-25T01:56:07.846Z,16.53
2019-04-25T01:58:38.064Z,16.90
2019-04-25T02:01:08.134Z,16.80
2019-04-25T02:03:39.294Z,17.17
2019-04-25T02:06:10.474Z,17.20
2019-04-25T02:08:40.681Z,17.27
2019-04-25T02:11:17.868Z,17.30
2019-04-25T02:13:47.882Z,17.33
2019-04-25T02:16:18.047Z,17.67
2019-04-25T02:18:48.047Z,16.73
2019-04-25T02:21:18.063Z,16.17
2019-04-25T02:23:48.261Z,17.17
2019-04-25T02:26:18.703Z,17.97
2019-04-25T02:28:48.839Z,18.50
2019-04-25T02:31:19.906Z,17.30
2019-04-25T02:33:49.965Z,16.80
2019-04-25T02:36:20.045Z,18.13
2019-04-25T02:38:50.098Z,17.60
2019-04-25T02:41:20.112Z,18.17
2019-04-25T02:43:50.245Z,18.60
2019-04-25T02:46:27.879Z,18.20
2019-04-25T02:49:28.783Z,17.70
2019-04-25T02:51:45.246Z,17.23
2019-04-25T02:54:15.346Z,17.63
2019-04-25T02:56:46.762Z,18.40
2019-04-25T02:59:16.923Z,17.83
2019-04-25T03:01:47.206Z,18.03
2019-04-25T03:04:17.212Z,17.60
2019-04-25T03:06:47.341Z,18.17
2019-04-25T03:09:17.347Z,17.63
2019-04-25T03:11:47.817Z,17.57
2019-04-25T03:14:18.165Z,17.83
2019-04-25T03:16:48.429Z,17.07
2019-04-25T03:19:36.564Z,16.87
2019-04-25T03:22:11.857Z,17.13
2019-04-25T03:24:42.753Z,16.90
2019-04-25T03:27:14.234Z,17.03
2019-04-25T03:29:45.736Z,17.13
2019-04-25T03:32:19.682Z,16.77
2019-04-25T03:34:47.582Z,17.00
2019-04-25T03:37:17.626Z,16.73
2019-04-25T03:39:47.751Z,16.63
2019-04-25T03:42:17.753Z,17.13
2019-04-25T03:44:47.833Z,16.17
2019-04-25T03:47:17.857Z,17.27
2019-04-25T03:49:47.894Z,16.87
2019-04-25T03:52:17.988Z,17.43
2019-04-25T03:54:48.024Z,16.33
2019-04-25T03:57:18.086Z,16.97
2019-04-25T03:59:48.045Z,15.77
2019-04-25T04:02:18.086Z,16.57
2019-04-25T04:04:48.071Z,15.60
2019-04-25T04:07:18.108Z,16.87
2019-04-25T04:09:48.102Z,16.10
2019-04-25T04:12:18.145Z,16.03
2019-04-25T04:14:48.153Z,15.00
2019-04-25T04:17:19.807Z,15.60
2019-04-25T04:19:57.512Z,15.23
2019-04-25T04:22:29.221Z,15.43
2019-04-25T04:25:03.676Z,14.77
2019-04-25T04:27:35.161Z,14.57
2019-04-25T04:30:10.116Z,14.57
2019-04-25T04:32:41.163Z,15.17
2019-04-25T04:35:11.175Z,14.53
2019-04-25T04:37:41.282Z,14.90
2019-04-25T04:40:11.705Z,14.50
2019-04-25T04:42:43.434Z,14.77
2019-04-25T04:45:15.178Z,14.47
2019-04-25T04:47:45.429Z,14.57
2019-04-25T04:50:16.695Z,14.60
2019-04-25T04:52:46.800Z,14.30
2019-04-25T04:55:18.301Z,14.43
2019-04-25T04:57:48.651Z,14.27
2019-04-25T05:00:18.756Z,13.73
2019-04-25T05:02:50.411Z,13.40
2019-04-25T05:05:39.952Z,14.23
2019-04-25T05:08:14.959Z,14.00
2019-04-25T05:10:45.914Z,13.77
2019-04-25T05:13:16.789Z,13.60
2019-04-25T05:15:47.895Z,12.97
2019-04-25T05:18:33.042Z,13.13
2019-04-25T05:20:49.616Z,13.33
2019-04-25T05:23:19.680Z,13.97
2019-04-25T05:25:49.690Z,14.03
2019-04-25T05:28:19.701Z,13.83
2019-04-25T05:30:54.330Z,14.03
2019-04-25T05:33:25.803Z,13.53
2019-04-25T05:35:55.959Z,13.37
2019-04-25T05:38:25.995Z,14.03
2019-04-25T05:40:57.666Z,13.67
2019-04-25T05:43:28.970Z,14.53
2019-04-25T05:45:59.149Z,14.10
2019-04-25T05:48:29.163Z,13.80
2019-04-25T05:50:59.244Z,14.13
2019-04-25T05:53:29.259Z,14.17
2019-04-25T05:55:59.297Z,14.83
2019-04-25T05:58:29.312Z,14.30
2019-04-25T06:00:59.359Z,14.27
2019-04-25T06:03:29.441Z,14.33
2019-04-25T06:06:23.629Z,14.40
2019-04-25T06:08:58.137Z,13.53
2019-04-25T06:11:33.660Z,13.77
2019-04-25T06:14:05.563Z,14.23
2019-04-25T06:16:36.519Z,13.53
2019-04-25T06:19:13.978Z,14.23
2019-04-25T06:21:40.094Z,14.47
2019-04-25T06:24:20.982Z,13.87
2019-04-25T06:26:53.875Z,13.47
2019-04-25T06:29:24.809Z,15.13
2019-04-25T06:32:05.697Z,14.30
2019-04-25T06:34:28.397Z,13.77
2019-04-25T06:36:58.369Z,14.53
2019-04-25T06:39:28.432Z,14.40
2019-04-25T06:41:58.513Z,13.83
2019-04-25T06:44:34.561Z,14.77
2019-04-25T06:47:07.566Z,13.73
2019-04-25T06:49:39.223Z,13.90
2019-04-25T06:52:09.369Z,14.33
2019-04-25T06:54:39.439Z,13.43
2019-04-25T06:57:09.427Z,13.33
2019-04-25T06:59:41.545Z,13.47
2019-04-25T07:02:11.581Z,13.57
2019-04-25T07:04:41.595Z,12.90
2019-04-25T07:07:13.123Z,14.03
2019-04-25T07:09:43.638Z,13.40
2019-04-25T07:12:14.725Z,13.50
2019-04-25T07:14:44.715Z,13.27
2019-04-25T07:17:14.745Z,13.60
2019-04-25T07:19:44.772Z,13.80
2019-04-25T07:22:15.520Z,13.20
2019-04-25T07:24:46.584Z,13.77
2019-04-25T07:27:18.387Z,13.60
2019-04-25T07:29:57.336Z,13.77
2019-04-25T07:32:45.317Z,14.30
2019-04-25T07:35:16.095Z,13.80
2019-04-25T07:37:46.213Z,14.37
2019-04-25T07:40:16.763Z,13.73
2019-04-25T07:42:46.860Z,14.00
2019-04-25T07:45:17.509Z,14.50
2019-04-25T07:47:47.647Z,14.00
2019-04-25T07:50:17.726Z,13.60
2019-04-25T07:52:47.813Z,14.07
2019-04-25T07:55:20.221Z,14.03
2019-04-25T07:57:50.253Z,14.37
2019-04-25T08:00:21.198Z,14.47
2019-04-25T08:02:51.235Z,14.27
2019-04-25T08:05:21.306Z,13.93
2019-04-25T08:07:51.363Z,14.27
2019-04-25T08:10:23.902Z,14.13
2019-04-25T08:12:54.101Z,13.40
2019-04-25T08:15:31.805Z,13.80
2019-04-25T08:18:04.145Z,13.63
2019-04-25T08:20:35.844Z,14.17
2019-04-25T08:23:06.536Z,13.30
2019-04-25T08:25:39.209Z,13.43
2019-04-25T08:28:08.438Z,13.90
2019-04-25T08:30:38.502Z,13.80
2019-04-25T08:33:08.648Z,13.63
2019-04-25T08:35:38.733Z,14.23
2019-04-25T08:38:08.743Z,13.40
2019-04-25T08:40:39.029Z,13.80
2019-04-25T08:43:09.408Z,13.03
2019-04-25T08:45:39.819Z,12.80
2019-04-25T08:48:09.965Z,13.67
2019-04-25T08:50:42.873Z,13.10
2019-04-25T08:53:13.647Z,13.67
2019-04-25T08:55:49.300Z,12.73
2019-04-25T08:58:35.291Z,13.27
2019-04-25T09:01:09.503Z,13.53
2019-04-25T09:03:55.973Z,14.23
2019-04-25T09:06:27.969Z,14.33
2019-04-25T09:08:58.014Z,14.60
2019-04-25T09:11:28.010Z,14.57
2019-04-25T09:13:58.027Z,14.63
2019-04-25T09:16:28.039Z,14.67
2019-04-25T09:18:58.106Z,14.90
2019-04-25T09:21:28.107Z,14.77
2019-04-25T09:23:58.158Z,14.17
2019-04-25T09:26:28.413Z,15.00
2019-04-25T09:28:58.674Z,14.50
2019-04-25T09:31:28.671Z,14.60
2019-04-25T09:33:58.763Z,14.20
2019-04-25T09:36:28.834Z,14.33
2019-04-25T09:39:00.494Z,14.17
2019-04-25T09:41:33.626Z,14.63
2019-04-25T09:44:05.299Z,13.87
2019-04-25T09:46:37.351Z,13.80
2019-04-25T09:49:21.115Z,13.80
2019-04-25T09:51:53.443Z,13.73
2019-04-25T09:54:28.281Z,13.93
2019-04-25T09:56:59.945Z,13.00
2019-04-25T09:59:30.233Z,13.50
2019-04-25T10:02:00.337Z,13.23
2019-04-25T10:04:30.337Z,12.70
2019-04-25T10:07:00.388Z,12.57
2019-04-25T10:09:30.492Z,12.10
2019-04-25T10:12:00.509Z,11.47
2019-04-25T10:14:37.549Z,12.13
2019-04-25T10:17:07.712Z,12.10
2019-04-25T10:19:37.819Z,12.10
2019-04-25T10:22:08.160Z,11.87
2019-04-25T10:24:38.507Z,11.80
2019-04-25T10:27:08.714Z,11.83
2019-04-25T10:29:44.428Z,11.90
2019-04-25T10:32:13.268Z,11.30
2019-04-25T10:34:44.676Z,11.53
2019-04-25T10:37:16.379Z,11.60
2019-04-25T10:39:46.477Z,11.90
2019-04-25T10:42:16.685Z,11.87
2019-04-25T10:44:47.136Z,11.43
2019-04-25T10:47:18.288Z,13.10
2019-04-25T10:49:48.298Z,12.23
2019-04-25T10:52:18.307Z,11.63
2019-04-25T10:54:48.329Z,12.30
2019-04-25T10:57:18.414Z,12.30
2019-04-25T11:00:00.782Z,12.30
2019-04-25T11:02:20.815Z,12.43
2019-04-25T11:04:58.530Z,12.60
2019-04-25T11:07:28.859Z,12.07
2019-04-25T11:09:58.939Z,11.77
2019-04-25T11:12:29.015Z,12.20
2019-04-25T11:14:59.101Z,11.77
2019-04-25T11:17:29.208Z,13.20
2019-04-25T11:19:59.285Z,12.00
2019-04-25T11:22:29.300Z,11.87
2019-04-25T11:24:59.331Z,13.00
2019-04-25T11:27:29.616Z,12.23
2019-04-25T11:30:10.505Z,11.70
2019-04-25T11:32:33.957Z,12.60
2019-04-25T11:35:05.880Z,11.80
2019-04-25T11:37:36.028Z,12.67
2019-04-25T11:40:15.116Z,12.33
2019-04-25T11:42:46.241Z,12.80
2019-04-25T11:45:17.337Z,12.10
2019-04-25T11:47:48.340Z,11.80
2019-04-25T11:50:18.548Z,11.97
2019-04-25T11:52:48.593Z,11.90
2019-04-25T11:55:19.146Z,12.57
2019-04-25T11:57:51.142Z,17.73
2019-04-25T12:00:24.425Z,16.27
2019-04-25T12:02:56.026Z,13.13
2019-04-25T12:05:27.639Z,12.53
2019-04-25T12:07:57.729Z,11.63
2019-04-25T12:10:28.393Z,11.80
2019-04-25T12:12:58.540Z,11.57
2019-04-25T12:15:28.775Z,11.37
2019-04-25T12:17:58.899Z,12.07
2019-04-25T12:20:28.981Z,11.20
2019-04-25T12:23:08.497Z,11.50
2019-04-25T12:25:30.782Z,12.13
2019-04-25T12:28:00.801Z,10.97
2019-04-25T12:30:38.272Z,12.07
2019-04-25T12:33:03.371Z,11.83
2019-04-25T12:35:33.474Z,11.47
2019-04-25T12:38:03.529Z,11.70
2019-04-25T12:40:34.335Z,11.67
2019-04-25T12:43:05.254Z,12.30
2019-04-25T12:45:56.158Z,11.80
2019-04-25T12:48:26.241Z,11.97
2019-04-25T12:50:56.723Z,11.73
2019-04-25T12:53:26.847Z,12.23
2019-04-25T12:55:57.016Z,12.30
2019-04-25T12:58:27.033Z,12.50
2019-04-25T13:00:59.937Z,11.60
2019-04-25T13:03:29.042Z,11.40
2019-04-25T13:06:00.138Z,12.13
2019-04-25T13:08:30.186Z,11.13
2019-04-25T13:11:07.930Z,11.57
2019-04-25T13:13:31.979Z,11.30
2019-04-25T13:16:02.053Z,11.37
2019-04-25T13:18:32.112Z,10.80
2019-04-25T13:21:03.515Z,11.20
2019-04-25T13:23:34.262Z,11.13
2019-04-25T13:26:05.674Z,12.10
2019-04-25T13:28:49.496Z,11.53
2019-04-25T13:31:21.151Z,11.40
2019-04-25T13:33:54.222Z,11.87
2019-04-25T13:36:28.454Z,12.13
2019-04-25T13:38:58.537Z,11.67
2019-04-25T13:41:28.528Z,11.47
2019-04-25T13:43:58.944Z,11.63
2019-04-25T13:46:29.087Z,10.90
2019-04-25T13:48:59.132Z,12.00
2019-04-25T13:51:29.254Z,11.50
2019-04-25T13:53:59.395Z,10.63
2019-04-25T13:56:29.426Z,10.87
2019-04-25T13:58:59.474Z,11.30
2019-04-25T14:01:29.831Z,11.20
2019-04-25T14:04:00.005Z,11.17
2019-04-25T14:06:30.388Z,11.43
2019-04-25T14:09:00.469Z,10.93
2019-04-25T14:11:32.723Z,11.07
2019-04-25T14:14:04.116Z,11.57
2019-04-25T14:16:47.940Z,11.10
2019-04-25T14:19:36.181Z,11.77
2019-04-25T14:22:07.107Z,11.33
2019-04-25T14:24:37.266Z,11.50
2019-04-25T14:27:07.294Z,11.30
2019-04-25T14:29:37.329Z,11.60
2019-04-25T14:32:09.224Z,11.17
2019-04-25T14:34:39.359Z,11.30
2019-04-25T14:37:09.437Z,12.13
2019-04-25T14:39:39.879Z,11.47
2019-04-25T14:42:10.046Z,11.90
2019-04-25T14:44:40.251Z,11.57
2019-04-25T14:47:10.320Z,11.93
2019-04-25T14:49:40.455Z,11.33
2019-04-25T14:52:10.548Z,12.30
2019-04-25T14:54:48.166Z,11.60
2019-04-25T14:57:23.420Z,11.23
2019-04-25T14:59:54.411Z,11.73
2019-04-25T15:02:26.116Z,11.57
2019-04-25T15:04:56.232Z,11.17
2019-04-25T15:07:26.246Z,11.73
2019-04-25T15:09:57.371Z,11.70
2019-04-25T15:12:27.397Z,12.17
2019-04-25T15:14:57.462Z,11.37
2019-04-25T15:17:28.415Z,12.07
2019-04-25T15:19:58.644Z,12.17
2019-04-25T15:22:28.665Z,12.20
2019-04-25T15:24:58.734Z,12.73
2019-04-25T15:27:29.164Z,12.77
2019-04-25T15:29:59.384Z,12.00
2019-04-25T15:32:31.057Z,10.80
2019-04-25T15:35:01.188Z,10.90
2019-04-25T15:37:33.802Z,11.43
2019-04-25T15:40:07.427Z,11.43
2019-04-25T15:42:41.978Z,11.30
2019-04-25T15:45:13.892Z,10.67
2019-04-25T15:47:45.530Z,11.60
2019-04-25T15:50:16.847Z,11.23
2019-04-25T15:52:46.935Z,10.87
2019-04-25T15:55:17.370Z,10.40
2019-04-25T15:57:47.468Z,11.17
2019-04-25T16:00:19.493Z,10.03
2019-04-25T16:02:49.725Z,10.73
2019-04-25T16:05:19.783Z,11.20
2019-04-25T16:07:49.859Z,10.77
2019-04-25T16:10:19.944Z,11.53
2019-04-25T16:12:50.074Z,10.90
2019-04-25T16:15:20.227Z,10.93
2019-04-25T16:17:50.353Z,10.10
2019-04-25T16:20:20.408Z,9.47
2019-04-25T16:22:50.452Z,10.07
2019-04-25T16:25:20.699Z,9.87
2019-04-25T16:27:50.973Z,9.80
2019-04-25T16:30:22.900Z,9.53
2019-04-25T16:32:52.934Z,9.90
2019-04-25T16:35:22.929Z,9.83
2019-04-25T16:37:53.015Z,9.87
2019-04-25T16:40:23.692Z,10.00
2019-04-25T16:42:53.720Z,10.10
2019-04-25T16:45:23.819Z,10.00
2019-04-25T16:47:53.961Z,10.67
2019-04-25T16:50:24.520Z,9.87
2019-04-25T16:52:54.563Z,10.17
2019-04-25T16:55:24.641Z,10.50
2019-04-25T16:57:54.864Z,10.67
2019-04-25T17:00:36.232Z,10.17
2019-04-25T17:03:06.501Z,11.13
2019-04-25T17:05:37.098Z,10.27
2019-04-25T17:08:08.222Z,11.00
2019-04-25T17:10:39.452Z,11.30
2019-04-25T17:13:10.786Z,11.33
2019-04-25T17:15:58.783Z,10.73
2019-04-25T17:18:39.829Z,10.80
2019-04-25T17:21:11.755Z,10.43
2019-04-25T17:23:41.876Z,10.20
2019-04-25T17:26:12.625Z,10.90
2019-04-25T17:28:44.275Z,10.87
2019-04-25T17:31:22.147Z,11.10
2019-04-25T17:33:56.837Z,10.73
2019-04-25T17:36:33.196Z,10.17
2019-04-25T17:39:20.738Z,10.10
2019-04-25T17:41:50.780Z,10.27
2019-04-25T17:44:20.857Z,10.23
2019-04-25T17:46:50.903Z,10.90
2019-04-25T17:49:20.898Z,10.37
2019-04-25T17:51:50.918Z,10.77
2019-04-25T17:54:20.960Z,10.50
2019-04-25T17:56:50.961Z,10.50
2019-04-25T17:59:21.035Z,10.47
2019-04-25T18:01:52.340Z,10.83
2019-04-25T18:04:22.554Z,10.00
2019-04-25T18:06:53.141Z,10.17
2019-04-25T18:09:23.956Z,10.30
2019-04-25T18:11:54.081Z,9.67
2019-04-25T18:14:24.133Z,10.37
2019-04-25T18:16:54.262Z,10.47
2019-04-25T18:19:28.751Z,10.37
2019-04-25T18:22:00.381Z,10.23
2019-04-25T18:24:45.323Z,10.53
2019-04-25T18:27:17.061Z,10.77
2019-04-25T18:29:47.202Z,10.00
2019-04-25T18:32:17.288Z,10.50
2019-04-25T18:34:58.774Z,10.30
2019-04-25T18:37:32.953Z,10.53
2019-04-25T18:40:21.355Z,10.00
2019-04-25T18:42:58.631Z,10.20
2019-04-25T18:45:30.274Z,10.17
2019-04-25T18:48:00.345Z,9.90
2019-04-25T18:50:32.115Z,9.23
2019-04-25T18:53:06.535Z,9.67
2019-04-25T18:55:44.478Z,9.47
2019-04-25T18:58:18.804Z,9.63
2019-04-25T19:00:50.523Z,9.40
2019-04-25T19:03:26.193Z,9.63
2019-04-25T19:06:00.951Z,9.47
2019-04-25T19:08:31.015Z,9.77
2019-04-25T19:11:01.082Z,9.27
2019-04-25T19:13:31.609Z,9.27
2019-04-25T19:16:01.718Z,9.97
2019-04-25T19:18:31.764Z,9.27
2019-04-25T19:21:01.835Z,9.07
2019-04-25T19:23:31.828Z,9.40
2019-04-25T19:26:01.900Z,9.40
2019-04-25T19:28:31.967Z,9.67
2019-04-25T19:31:02.022Z,10.10
2019-04-25T19:33:35.943Z,9.07
2019-04-25T19:36:04.004Z,9.20
2019-04-25T19:38:34.081Z,9.43
2019-04-25T19:41:05.730Z,9.33
2019-04-25T19:43:37.449Z,9.23
2019-04-25T19:46:07.451Z,9.43
2019-04-25T19:48:37.798Z,9.00
2019-04-25T19:51:07.813Z,9.37
2019-04-25T19:53:37.892Z,9.80
2019-04-25T19:56:08.949Z,9.07
2019-04-25T19:58:38.968Z,9.00
2019-04-25T20:01:08.962Z,9.20
2019-04-25T20:03:49.581Z,9.13
2019-04-25T20:06:23.089Z,9.93
2019-04-25T20:08:57.219Z,10.13
2019-04-25T20:11:28.878Z,9.70
2019-04-25T20:13:58.922Z,9.70
2019-04-25T20:16:30.547Z,9.30
2019-04-25T20:19:01.790Z,8.70
2019-04-25T20:21:32.981Z,9.80
2019-04-25T20:24:03.391Z,9.87
2019-04-25T20:26:33.400Z,9.07
2019-04-25T20:29:03.495Z,9.50
2019-04-25T20:31:33.570Z,9.63
2019-04-25T20:34:06.156Z,9.90
2019-04-25T20:36:35.408Z,10.00
2019-04-25T20:39:07.315Z,9.37
2019-04-25T20:41:38.921Z,9.60
2019-04-25T20:44:08.978Z,9.50
2019-04-25T20:46:39.107Z,9.90
2019-04-25T20:49:09.192Z,9.80
2019-04-25T20:51:39.249Z,9.43
2019-04-25T20:54:09.276Z,10.00
2019-04-25T20:56:39.338Z,10.00
2019-04-25T20:59:09.408Z,10.30
2019-04-25T21:01:39.584Z,9.90
2019-04-25T21:04:13.251Z,9.87
2019-04-25T21:06:43.689Z,9.60
2019-04-25T21:09:13.690Z,10.47
2019-04-25T21:11:44.387Z,10.27
2019-04-25T21:14:16.044Z,10.07
2019-04-25T21:16:59.913Z,9.90
2019-04-25T21:19:37.133Z,10.00
2019-04-25T21:22:07.132Z,10.43
2019-04-25T21:24:37.166Z,10.37
2019-04-25T21:27:07.286Z,10.53
2019-04-25T21:29:38.468Z,10.40
2019-04-25T21:32:08.479Z,10.60
2019-04-25T21:34:38.590Z,10.47
2019-04-25T21:37:09.057Z,11.20
2019-04-25T21:39:41.433Z,11.10
2019-04-25T21:42:32.026Z,11.27
2019-04-25T21:45:02.758Z,11.10
2019-04-25T21:47:32.971Z,11.33
2019-04-25T21:50:04.470Z,10.83
2019-04-25T21:52:35.028Z,10.70
2019-04-25T21:55:06.321Z,11.43
2019-04-25T21:57:36.766Z,11.33
2019-04-25T22:00:10.980Z,11.80
2019-04-25T22:02:42.940Z,11.03
2019-04-25T22:05:13.441Z,12.23
2019-04-25T22:07:44.325Z,11.87
2019-04-25T22:10:14.810Z,12.20
2019-04-25T22:12:45.065Z,12.53
2019-04-25T22:15:15.907Z,12.73
2019-04-25T22:17:45.999Z,13.03
2019-04-25T22:20:16.204Z,12.73
2019-04-25T22:22:46.534Z,13.33
2019-04-25T22:25:16.542Z,12.97
2019-04-25T22:27:47.211Z,12.90
2019-04-25T22:30:19.088Z,12.73
2019-04-25T22:33:03.614Z,12.40
2019-04-25T22:35:39.089Z,13.03
2019-04-25T22:38:09.456Z,13.97
2019-04-25T22:40:39.519Z,13.90
2019-04-25T22:43:09.899Z,13.07
2019-04-25T22:45:41.155Z,13.00
2019-04-25T22:48:11.177Z,13.20
2019-04-25T22:50:41.421Z,13.33
2019-04-25T22:53:21.581Z,12.83
2019-04-25T22:55:43.181Z,13.00
2019-04-25T22:58:13.195Z,13.10
2019-04-25T23:00:43.321Z,13.27
2019-04-25T23:03:16.762Z,12.70
2019-04-25T23:05:48.597Z,13.20
2019-04-25T23:08:18.957Z,13.47
2019-04-25T23:10:49.058Z,13.17
2019-04-25T23:13:19.094Z,13.27
2019-04-25T23:15:49.187Z,14.30
2019-04-25T23:18:19.640Z,14.13
2019-04-25T23:20:49.650Z,14.20
2019-04-25T23:23:20.093Z,13.90
2019-04-25T23:25:57.479Z,13.73
2019-04-25T23:28:29.352Z,14.60
2019-04-25T23:31:13.126Z,15.10
2019-04-25T23:33:43.267Z,14.97
2019-04-25T23:36:13.730Z,15.03
2019-04-25T23:38:43.758Z,14.63
2019-04-25T23:41:13.929Z,16.57
2019-04-25T23:43:44.020Z,15.20
2019-04-25T23:46:14.209Z,14.67
2019-04-25T23:48:44.664Z,15.10
2019-04-25T23:51:15.381Z,16.60
2019-04-25T23:53:45.706Z,14.07
2019-04-25T23:56:15.737Z,14.70
2019-04-25T23:58:46.027Z,15.27
